createdAt,value
2023-05-25T03:51:17.428Z,13.13
2023-05-25T03:54:21.635Z,13.00
2023-05-25T03:57:24.393Z,12.40
2023-05-25T04:00:28.058Z,11.20
2023-05-25T04:03:33.098Z,12.95
2023-05-25T04:06:37.390Z,12.73
2023-05-25T04:09:41.062Z,12.85
2023-05-25T04:12:43.719Z,11.23
2023-05-25T04:15:46.976Z,12.43
2023-05-25T04:18:50.032Z,12.65
2023-05-25T04:21:52.994Z,12.82
2023-05-25T04:24:55.606Z,13.20
2023-05-25T04:27:58.553Z,14.95
2023-05-25T04:31:03.766Z,10.48
2023-05-25T04:34:09.728Z,11.88
2023-05-25T04:37:14.242Z,11.73
2023-05-25T04:40:17.354Z,13.70
2023-05-25T04:43:20.521Z,12.45
2023-05-25T04:46:23.805Z,10.50
2023-05-25T04:49:26.815Z,10.43
2023-05-25T04:52:30.212Z,12.77
2023-05-25T04:55:32.916Z,11.35
2023-05-25T04:58:36.271Z,12.35
2023-05-25T05:01:41.240Z,10.55
2023-05-25T05:04:44.796Z,11.30
2023-05-25T05:07:48.286Z,10.38
2023-05-25T05:10:51.229Z,12.52
2023-05-25T05:13:55.062Z,10.07
2023-05-25T05:16:58.377Z,9.35
2023-05-25T05:20:01.310Z,11.07
2023-05-25T05:23:04.426Z,9.20
2023-05-25T05:26:10.989Z,17.52
2023-05-25T05:29:14.168Z,15.15
2023-05-25T05:32:16.761Z,9.40
2023-05-25T05:35:20.160Z,11.52
2023-05-25T05:38:23.311Z,9.75
2023-05-25T05:41:27.565Z,10.38
2023-05-25T05:44:30.409Z,9.20
2023-05-25T05:47:33.413Z,12.68
2023-05-25T05:50:41.754Z,8.60
2023-05-25T05:53:45.574Z,10.25
2023-05-25T05:56:48.362Z,11.05
2023-05-25T05:59:51.346Z,9.20
2023-05-25T06:02:55.228Z,10.10
2023-05-25T06:05:59.403Z,12.23
2023-05-25T06:09:03.690Z,10.48
2023-05-25T06:12:07.189Z,10.15
2023-05-25T06:15:10.623Z,12.65
2023-05-25T06:18:13.957Z,9.52
2023-05-25T06:21:16.819Z,10.38
2023-05-25T06:24:19.817Z,10.80
2023-05-25T06:27:23.556Z,9.90
2023-05-25T06:30:26.502Z,9.15
2023-05-25T06:33:29.300Z,11.75
2023-05-25T06:36:32.665Z,9.77
2023-05-25T06:39:35.654Z,8.85
2023-05-25T06:42:38.918Z,9.57
2023-05-25T06:45:59.052Z,7.85
2023-05-25T06:49:02.695Z,8.73
2023-05-25T06:52:05.694Z,7.78
2023-05-25T06:55:11.564Z,6.80
2023-05-25T06:58:14.177Z,7.53
2023-05-25T07:01:17.272Z,7.15
2023-05-25T07:04:19.958Z,10.88
2023-05-25T07:07:22.961Z,8.43
2023-05-25T07:10:25.821Z,7.85
2023-05-25T07:13:28.983Z,8.32
2023-05-25T07:16:32.151Z,7.50
2023-05-25T07:19:35.173Z,7.65
2023-05-25T07:22:37.936Z,9.70
2023-05-25T07:25:41.597Z,8.05
2023-05-25T07:28:44.480Z,10.27
2023-05-25T07:31:47.669Z,8.43
2023-05-25T07:34:50.443Z,7.32
2023-05-25T07:37:58.304Z,7.15
2023-05-25T07:41:01.237Z,7.68
2023-05-25T07:44:04.837Z,7.18
2023-05-25T07:47:07.687Z,6.50
2023-05-25T07:50:11.236Z,6.95
2023-05-25T07:53:14.040Z,6.55
2023-05-25T07:56:17.372Z,9.10
2023-05-25T07:59:20.082Z,7.12
2023-05-25T08:02:23.320Z,8.85
2023-05-25T08:05:26.430Z,11.20
2023-05-25T08:08:29.170Z,7.95
2023-05-25T08:11:32.198Z,9.75
2023-05-25T08:14:34.872Z,7.93
2023-05-25T08:17:37.863Z,10.02
2023-05-25T08:20:41.252Z,9.38
2023-05-25T08:23:44.391Z,8.10
2023-05-25T08:26:54.947Z,6.65
2023-05-25T08:29:58.258Z,7.07
2023-05-25T08:33:01.180Z,6.65
2023-05-25T08:36:04.365Z,6.40
2023-05-25T08:39:08.385Z,8.15
2023-05-25T08:42:11.353Z,6.85
2023-05-25T08:45:30.563Z,9.15
2023-05-25T08:48:42.327Z,6.93
2023-05-25T08:51:51.315Z,5.78
2023-05-25T08:54:57.584Z,6.20
2023-05-25T08:58:07.222Z,6.18
2023-05-25T09:01:14.254Z,6.10
2023-05-25T09:04:19.770Z,9.93
2023-05-25T09:07:23.641Z,5.65
2023-05-25T09:10:27.926Z,6.47
2023-05-25T09:13:31.112Z,10.20
2023-05-25T09:16:34.353Z,9.45
2023-05-25T09:19:37.585Z,7.00
2023-05-25T09:22:42.083Z,10.52
2023-05-25T09:25:46.495Z,11.15
2023-05-25T09:28:49.409Z,9.35
2023-05-25T09:31:52.555Z,9.20
2023-05-25T09:34:57.648Z,8.65
2023-05-25T09:38:00.743Z,7.55
2023-05-25T09:41:04.692Z,8.48
2023-05-25T09:44:11.671Z,8.02
2023-05-25T09:47:16.894Z,8.02
2023-05-25T09:50:19.901Z,7.50
2023-05-25T09:53:22.855Z,6.75
2023-05-25T09:56:27.531Z,7.40
2023-05-25T09:59:31.177Z,8.55
2023-05-25T10:02:34.212Z,8.02
2023-05-25T10:05:37.221Z,8.07
2023-05-25T10:08:39.840Z,7.50
2023-05-25T10:11:43.967Z,7.22
2023-05-25T10:14:50.291Z,7.60
2023-05-25T10:17:58.314Z,6.95
2023-05-25T10:21:04.587Z,7.62
2023-05-25T10:24:18.851Z,6.97
2023-05-25T10:27:27.542Z,9.07
2023-05-25T10:30:32.773Z,5.70
2023-05-25T10:33:35.437Z,6.95
2023-05-25T10:36:38.522Z,7.57
2023-05-25T10:39:43.996Z,5.32
2023-05-25T10:42:47.418Z,7.80
2023-05-25T10:45:50.082Z,8.48
2023-05-25T10:48:53.188Z,5.72
2023-05-25T10:52:00.192Z,6.25
2023-05-25T10:55:05.215Z,5.87
2023-05-25T10:58:13.699Z,5.70
2023-05-25T11:01:16.723Z,5.43
2023-05-25T11:04:19.541Z,4.50
2023-05-25T11:07:22.447Z,4.55
2023-05-25T11:10:50.780Z,4.93
2023-05-25T11:13:53.728Z,5.47
2023-05-25T11:17:12.170Z,8.23
2023-05-25T11:20:25.798Z,5.80
2023-05-25T11:23:30.115Z,5.05
2023-05-25T11:26:34.803Z,5.03
2023-05-25T11:29:38.512Z,5.40
2023-05-25T11:32:50.692Z,8.10
2023-05-25T11:35:55.282Z,3.62
2023-05-25T11:39:04.777Z,6.18
2023-05-25T11:42:12.957Z,6.15
2023-05-25T11:45:16.073Z,5.57
2023-05-25T11:48:18.907Z,4.20
2023-05-25T11:51:24.785Z,4.22
2023-05-25T11:54:29.028Z,5.57
2023-05-25T11:57:32.094Z,10.98
2023-05-25T12:00:34.795Z,4.50
2023-05-25T12:03:37.782Z,4.03
2023-05-25T12:06:40.725Z,3.97
2023-05-25T12:09:43.792Z,4.47
2023-05-25T12:12:50.178Z,3.53
2023-05-25T12:15:57.665Z,3.43
2023-05-25T12:19:02.062Z,4.70
2023-05-25T12:22:05.803Z,3.45
2023-05-25T12:25:11.001Z,3.95
2023-05-25T12:28:15.755Z,5.75
2023-05-25T12:31:34.151Z,4.00
2023-05-25T12:34:37.154Z,3.20
2023-05-25T12:37:39.789Z,3.78
2023-05-25T12:40:42.865Z,3.40
2023-05-25T12:43:45.780Z,3.17
2023-05-25T12:46:50.275Z,3.45
2023-05-25T12:49:54.807Z,3.42
2023-05-25T12:53:02.562Z,4.65
2023-05-25T12:56:05.750Z,3.87
2023-05-25T12:59:15.477Z,4.75
2023-05-25T13:02:18.138Z,5.00
2023-05-25T13:05:23.411Z,4.07
2023-05-25T13:08:26.197Z,3.60
2023-05-25T13:11:29.215Z,5.22
2023-05-25T13:14:31.924Z,5.95
2023-05-25T13:17:35.820Z,3.95
2023-05-25T13:20:38.600Z,4.28
2023-05-25T13:23:41.752Z,4.07
2023-05-25T13:26:46.449Z,3.97
2023-05-25T13:29:50.493Z,7.60
2023-05-25T13:32:53.218Z,3.60
2023-05-25T13:35:59.883Z,3.33
2023-05-25T13:39:05.296Z,3.85
2023-05-25T13:42:08.411Z,7.00
2023-05-25T13:45:31.063Z,3.70
2023-05-25T13:48:53.969Z,3.25
2023-05-25T13:52:16.660Z,3.22
2023-05-25T13:55:40.129Z,3.35
2023-05-25T13:58:43.135Z,5.07
2023-05-25T14:01:46.714Z,2.90
2023-05-25T14:04:49.788Z,3.37
2023-05-25T14:07:53.323Z,3.20
2023-05-25T14:10:57.536Z,3.97
2023-05-25T14:14:00.441Z,3.87
2023-05-25T14:17:03.562Z,3.97
2023-05-25T14:20:07.192Z,4.43
2023-05-25T14:23:11.897Z,5.72
2023-05-25T14:26:16.451Z,4.93
2023-05-25T14:29:19.385Z,5.85
2023-05-25T14:32:22.043Z,5.60
2023-05-25T14:35:25.156Z,3.62
2023-05-25T14:38:28.115Z,4.72
2023-05-25T14:41:31.067Z,3.97
2023-05-25T14:44:33.685Z,4.55
2023-05-25T14:47:36.752Z,5.03
2023-05-25T14:50:40.734Z,4.07
2023-05-25T14:53:43.752Z,4.00
2023-05-25T14:56:46.977Z,7.00
2023-05-25T14:59:50.105Z,4.37
2023-05-25T15:02:52.858Z,5.32
2023-05-25T15:05:56.279Z,5.47
2023-05-25T15:08:58.953Z,6.28
2023-05-25T15:12:02.149Z,5.60
2023-05-25T15:15:05.082Z,6.37
2023-05-25T15:18:08.110Z,3.87
2023-05-25T15:21:10.930Z,5.50
2023-05-25T15:24:16.732Z,3.95
2023-05-25T15:27:19.775Z,4.25
2023-05-25T15:30:22.776Z,5.00
2023-05-25T15:33:35.721Z,6.22
2023-05-25T15:36:47.083Z,6.43
2023-05-25T15:39:49.765Z,4.87
2023-05-25T15:42:53.008Z,8.50
2023-05-25T15:45:55.665Z,4.00
2023-05-25T15:48:58.586Z,6.53
2023-05-25T15:52:01.176Z,4.22
2023-05-25T15:55:04.594Z,4.30
2023-05-25T15:58:07.422Z,4.55
